Time,TemperatureF,DewpointF,PressureIn,WindDirection,WindDirectionDegrees,WindSpeedMPH,WindSpeedGustMPH,Humidity,HourlyPrecipIn,Conditions,Clouds,dailyrainin,SoftwareType,DateUTC
2013-03-30 00:00:00,43.7,39.2,30.47,South,180,0.4,0.4,84,0.00,,---,0.00,VWS V14.01,2013-03-30 07:00:00,
2013-03-30 00:05:00,43.6,39.4,30.47,South,180,0.0,0.0,85,0.00,,---,0.00,VWS V14.01,2013-03-30 07:05:00,
2013-03-30 00:10:00,43.6,39.4,30.47,South,180,0.0,0.0,85,0.00,,---,0.00,VWS V14.01,2013-03-30 07:10:00,
2013-03-30 00:15:00,43.6,39.4,30.47,South,180,0.7,0.9,85,0.00,,---,0.00,VWS V14.01,2013-03-30 07:15:00,
2013-03-30 00:20:00,43.4,39.2,30.47,South,180,0.0,0.0,85,0.00,,---,0.00,VWS V14.01,2013-03-30 07:20:00,
2013-03-30 00:25:00,43.4,39.2,30.47,South,180,0.4,0.4,85,0.00,,---,0.00,VWS V14.01,2013-03-30 07:25:00,
2013-03-30 00:30:00,43.2,39.0,30.47,South,180,0.0,0.0,85,0.00,,---,0.00,VWS V14.01,2013-03-30 07:30:00,
2013-03-30 00:35:00,43.2,39.0,30.48,South,180,0.0,0.0,85,0.00,,---,0.00,VWS V14.01,2013-03-30 07:35:00,
2013-03-30 00:40:00,43.0,38.8,30.48,South,180,0.0,0.0,85,0.00,,---,0.00,VWS V14.01,2013-03-30 07:40:00,
2013-03-30 00:45:00,42.8,38.6,30.48,South,180,1.1,1.1,85,0.00,,---,0.00,VWS V14.01,2013-03-30 07:45:00,
2013-03-30 00:50:00,42.8,38.6,30.48,South,180,0.4,0.9,85,0.00,,---,0.00,VWS V14.01,2013-03-30 07:50:00,
2013-03-30 00:55:00,42.8,38.6,30.47,South,180,0.2,0.2,85,0.00,,---,0.00,VWS V14.01,2013-03-30 07:55:00,
2013-03-30 01:00:00,42.7,38.8,30.47,South,180,1.1,1.1,86,0.00,,---,0.00,VWS V14.01,2013-03-30 08:00:00,
2013-03-30 01:05:00,42.7,38.8,30.47,South,180,1.8,1.8,86,0.00,,---,0.00,VWS V14.01,2013-03-30 08:05:00,
2013-03-30 01:10:00,42.7,38.8,30.48,South,180,1.1,1.1,86,0.00,,---,0.00,VWS V14.01,2013-03-30 08:10:00,
2013-03-30 01:15:00,42.7,38.8,30.47,South,180,1.1,1.1,86,0.00,,---,0.00,VWS V14.01,2013-03-30 08:15:00,
2013-03-30 01:20:00,42.5,38.6,30.48,South,180,1.1,1.1,86,0.00,,---,0.00,VWS V14.01,2013-03-30 08:20:00,
2013-03-30 01:25:00,42.5,38.3,30.48,South,180,0.7,0.7,85,0.00,,---,0.00,VWS V14.01,2013-03-30 08:25:00,
2013-03-30 01:30:00,42.3,38.1,30.48,South,180,0.0,0.0,85,0.00,,---,0.00,VWS V14.01,2013-03-30 08:30:00,
2013-03-30 01:35:00,42.3,38.1,30.48,South,180,0.0,0.0,85,0.00,,---,0.00,VWS V14.01,2013-03-30 08:35:00,
2013-03-30 01:40:00,42.3,38.1,30.48,South,180,0.2,0.2,85,0.00,,---,0.00,VWS V14.01,2013-03-30 08:40:00,
2013-03-30 01:45:00,42.1,37.9,30.48,South,180,0.0,0.0,85,0.00,,---,0.00,VWS V14.01,2013-03-30 08:45:00,
2013-03-30 01:50:00,42.1,37.9,30.48,South,180,0.0,0.0,85,0.00,,---,0.00,VWS V14.01,2013-03-30 08:50:00,
2013-03-30 01:55:00,41.9,37.7,30.48,South,180,0.0,0.0,85,0.00,,---,0.00,VWS V14.01,2013-03-30 08:55:00,
2013-03-30 02:00:00,41.9,38.0,30.47,South,180,0.0,0.0,86,0.00,,---,0.00,VWS V14.01,2013-03-30 09:00:00,
2013-03-30 02:05:00,41.8,37.6,30.47,South,180,0.0,0.0,85,0.00,,---,0.00,VWS V14.01,2013-03-30 09:05:00,
2013-03-30 02:10:00,41.8,37.9,30.47,South,180,0.0,0.0,86,0.00,,---,0.00,VWS V14.01,2013-03-30 09:10:00,
2013-03-30 02:15:00,41.6,37.7,30.47,South,180,0.0,0.0,86,0.00,,---,0.00,VWS V14.01,2013-03-30 09:15:00,
2013-03-30 02:20:00,41.4,37.5,30.47,South,180,0.4,0.4,86,0.00,,---,0.00,VWS V14.01,2013-03-30 09:20:00,
2013-03-30 02:25:00,41.4,37.5,30.48,South,180,0.0,0.0,86,0.00,,---,0.00,VWS V14.01,2013-03-30 09:25:00,
2013-03-30 02:30:00,41.4,37.5,30.48,South,180,0.0,0.0,86,0.00,,---,0.00,VWS V14.01,2013-03-30 09:30:00,
2013-03-30 02:34:00,41.4,37.5,30.48,South,180,0.0,0.0,86,0.00,,---,0.00,VWS V14.01,2013-03-30 09:34:00,
2013-03-30 02:39:00,41.4,37.5,30.47,South,180,0.0,0.0,86,0.00,,---,0.00,VWS V14.01,2013-03-30 09:39:00,
2013-03-30 02:44:00,41.2,37.3,30.48,South,180,0.0,0.0,86,0.00,,---,0.00,VWS V14.01,2013-03-30 09:44:00,
2013-03-30 02:49:00,41.2,37.3,30.48,South,180,0.0,0.0,86,0.00,,---,0.00,VWS V14.01,2013-03-30 09:49:00,
2013-03-30 02:54:00,41.2,37.3,30.48,South,180,0.0,0.0,86,0.00,,---,0.00,VWS V14.01,2013-03-30 09:54:00,
2013-03-30 02:59:00,41.0,37.4,30.47,South,180,0.4,0.4,87,0.00,,---,0.00,VWS V14.01,2013-03-30 09:59:00,
2013-03-30 03:04:00,41.0,37.4,30.47,South,180,0.0,0.0,87,0.00,,---,0.00,VWS V14.01,2013-03-30 10:04:00,
2013-03-30 03:09:00,41.0,37.1,30.47,South,180,0.0,0.0,86,0.00,,---,0.00,VWS V14.01,2013-03-30 10:09:00,
2013-03-30 03:14:00,40.7,37.1,30.47,South,180,0.0,0.0,87,0.00,,---,0.00,VWS V14.01,2013-03-30 10:14:00,
2013-03-30 03:19:00,40.7,37.1,30.47,South,180,0.0,0.2,87,0.00,,---,0.00,VWS V14.01,2013-03-30 10:19:00,
2013-03-30 03:24:00,40.7,37.1,30.47,South,180,0.4,0.4,87,0.00,,---,0.00,VWS V14.01,2013-03-30 10:24:00,
2013-03-30 03:29:00,40.7,37.1,30.47,South,180,0.0,0.0,87,0.00,,---,0.00,VWS V14.01,2013-03-30 10:29:00,
2013-03-30 03:34:00,40.5,36.9,30.47,South,180,0.4,0.4,87,0.00,,---,0.00,VWS V14.01,2013-03-30 10:34:00,
2013-03-30 03:39:00,40.5,36.9,30.47,South,180,0.0,0.0,87,0.00,,---,0.00,VWS V14.01,2013-03-30 10:39:00,
2013-03-30 03:44:00,40.5,36.9,30.47,South,180,0.0,0.0,87,0.00,,---,0.00,VWS V14.01,2013-03-30 10:44:00,
2013-03-30 03:49:00,40.5,36.9,30.47,South,180,0.0,0.0,87,0.00,,---,0.00,VWS V14.01,2013-03-30 10:49:00,
2013-03-30 03:54:00,40.5,36.9,30.47,South,180,0.0,0.0,87,0.00,,---,0.00,VWS V14.01,2013-03-30 10:54:00,
2013-03-30 03:59:00,40.3,36.8,30.47,South,180,0.0,0.0,87,0.00,,---,0.00,VWS V14.01,2013-03-30 10:59:00,
2013-03-30 04:04:00,40.3,36.8,30.47,South,180,0.0,0.0,87,0.00,,---,0.00,VWS V14.01,2013-03-30 11:04:00,
2013-03-30 04:09:00,40.3,36.8,30.47,South,180,0.0,0.0,87,0.00,,---,0.00,VWS V14.01,2013-03-30 11:09:00,
2013-03-30 04:14:00,40.1,36.5,30.47,South,180,0.0,0.0,87,0.00,,---,0.00,VWS V14.01,2013-03-30 11:14:00,
2013-03-30 04:19:00,40.0,36.5,30.47,South,180,0.4,0.4,87,0.00,,---,0.00,VWS V14.01,2013-03-30 11:19:00,
2013-03-30 04:24:00,40.0,36.5,30.47,South,180,0.9,0.9,87,0.00,,---,0.00,VWS V14.01,2013-03-30 11:24:00,
2013-03-30 04:29:00,40.0,36.5,30.46,South,180,0.0,0.0,87,0.00,,---,0.00,VWS V14.01,2013-03-30 11:29:00,
2013-03-30 04:33:00,39.8,36.2,30.47,South,180,0.4,0.4,87,0.00,,---,0.00,VWS V14.01,2013-03-30 11:33:00,
2013-03-30 04:38:00,39.8,36.2,30.46,South,180,0.0,0.0,87,0.00,,---,0.00,VWS V14.01,2013-03-30 11:38:00,
2013-03-30 04:43:00,39.8,36.2,30.46,South,180,0.0,0.4,87,0.00,,---,0.00,VWS V14.01,2013-03-30 11:43:00,
2013-03-30 04:49:00,39.6,36.1,30.46,South,180,0.4,0.4,87,0.00,,---,0.00,VWS V14.01,2013-03-30 11:49:00,
2013-03-30 04:54:00,39.6,36.1,30.46,South,180,0.0,0.0,87,0.00,,---,0.00,VWS V14.01,2013-03-30 11:54:00,
2013-03-30 04:59:00,39.6,36.1,30.46,South,180,0.0,0.0,87,0.00,,---,0.00,VWS V14.01,2013-03-30 11:59:00,
2013-03-30 05:03:00,39.6,36.1,30.46,South,180,0.0,0.0,87,0.00,,---,0.00,VWS V14.01,2013-03-30 12:03:00,
2013-03-30 05:08:00,39.4,35.9,30.46,South,180,0.0,0.0,87,0.00,,---,0.00,VWS V14.01,2013-03-30 12:08:00,
2013-03-30 05:13:00,39.4,35.9,30.46,South,180,0.0,0.0,87,0.00,,---,0.00,VWS V14.01,2013-03-30 12:13:00,
2013-03-30 05:18:00,39.4,35.9,30.45,South,180,0.0,0.0,87,0.00,,---,0.00,VWS V14.01,2013-03-30 12:18:00,
2013-03-30 05:23:00,39.2,35.7,30.45,South,180,0.0,0.0,87,0.00,,---,0.00,VWS V14.01,2013-03-30 12:23:00,
2013-03-30 05:28:00,39.2,36.0,30.45,South,180,0.4,0.4,88,0.00,,---,0.00,VWS V14.01,2013-03-30 12:28:00,
2013-03-30 05:33:00,39.2,36.0,30.45,South,180,0.0,0.0,88,0.00,,---,0.00,VWS V14.01,2013-03-30 12:33:00,
2013-03-30 05:38:00,39.1,35.8,30.45,South,180,0.0,0.0,88,0.00,,---,0.00,VWS V14.01,2013-03-30 12:38:00,
2013-03-30 05:43:00,39.2,36.0,30.45,South,180,0.0,0.0,88,0.00,,---,0.00,VWS V14.01,2013-03-30 12:43:00,
2013-03-30 05:48:00,39.1,35.8,30.45,South,180,0.0,0.0,88,0.00,,---,0.00,VWS V14.01,2013-03-30 12:48:00,
2013-03-30 05:53:00,39.1,35.8,30.45,South,180,0.0,0.0,88,0.00,,---,0.00,VWS V14.01,2013-03-30 12:53:00,
2013-03-30 05:58:00,38.9,35.7,30.45,South,180,0.0,0.0,88,0.00,,---,0.00,VWS V14.01,2013-03-30 12:58:00,
2013-03-30 06:03:00,38.9,35.7,30.45,South,180,0.4,0.4,88,0.00,,---,0.00,VWS V14.01,2013-03-30 13:03:00,
2013-03-30 06:08:00,38.7,35.5,30.45,South,180,0.0,0.0,88,0.00,,---,0.00,VWS V14.01,2013-03-30 13:08:00,
2013-03-30 06:13:00,38.7,35.5,30.45,South,180,0.0,0.0,88,0.00,,---,0.00,VWS V14.01,2013-03-30 13:13:00,
2013-03-30 06:18:00,38.5,35.3,30.45,South,180,0.0,0.0,88,0.00,,---,0.00,VWS V14.01,2013-03-30 13:18:00,
2013-03-30 06:23:00,38.5,35.3,30.45,South,180,0.4,0.4,88,0.00,,---,0.00,VWS V14.01,2013-03-30 13:23:00,
2013-03-30 06:28:00,38.5,35.3,30.45,South,180,0.4,0.4,88,0.00,,---,0.00,VWS V14.01,2013-03-30 13:28:00,
2013-03-30 06:33:00,38.3,35.1,30.45,South,180,0.0,0.0,88,0.00,,---,0.00,VWS V14.01,2013-03-30 13:33:00,
2013-03-30 06:38:00,38.3,35.1,30.46,South,180,0.0,0.0,88,0.00,,---,0.00,VWS V14.01,2013-03-30 13:38:00,
2013-03-30 06:43:00,38.3,35.1,30.45,South,180,0.0,0.0,88,0.00,,---,0.00,VWS V14.01,2013-03-30 13:43:00,
2013-03-30 06:48:00,38.2,35.0,30.46,South,180,0.0,0.0,88,0.00,,---,0.00,VWS V14.01,2013-03-30 13:48:00,
2013-03-30 06:53:00,38.2,35.0,30.45,South,180,0.0,0.0,88,0.00,,---,0.00,VWS V14.01,2013-03-30 13:53:00,
2013-03-30 06:58:00,38.2,35.0,30.46,South,180,0.2,0.2,88,0.00,,---,0.00,VWS V14.01,2013-03-30 13:58:00,
2013-03-30 07:03:00,38.0,34.8,30.46,South,180,0.9,0.9,88,0.00,,---,0.00,VWS V14.01,2013-03-30 14:03:00,
2013-03-30 07:08:00,38.0,34.8,30.46,South,180,0.0,0.0,88,0.00,,---,0.00,VWS V14.01,2013-03-30 14:08:00,
2013-03-30 07:13:00,38.0,34.8,30.46,South,180,0.2,0.2,88,0.00,,---,0.00,VWS V14.01,2013-03-30 14:13:00,
2013-03-30 07:18:00,38.0,34.8,30.46,South,180,0.0,0.0,88,0.00,,---,0.00,VWS V14.01,2013-03-30 14:18:00,
2013-03-30 07:23:00,38.0,34.8,30.46,South,180,0.0,0.0,88,0.00,,---,0.00,VWS V14.01,2013-03-30 14:23:00,
2013-03-30 07:28:00,38.0,34.8,30.46,South,180,0.0,0.4,88,0.00,,---,0.00,VWS V14.01,2013-03-30 14:28:00,
2013-03-30 07:33:00,38.0,34.8,30.46,South,180,0.0,0.0,88,0.00,,---,0.00,VWS V14.01,2013-03-30 14:33:00,
2013-03-30 07:38:00,38.2,35.0,30.46,South,180,0.0,0.4,88,0.00,,---,0.00,VWS V14.01,2013-03-30 14:38:00,
2013-03-30 07:43:00,38.2,35.2,30.46,South,180,0.0,0.0,89,0.00,,---,0.00,VWS V14.01,2013-03-30 14:43:00,
2013-03-30 07:48:00,38.3,35.3,30.46,South,180,0.0,0.0,89,0.00,,---,0.00,VWS V14.01,2013-03-30 14:48:00,
2013-03-30 07:53:00,38.5,35.5,30.45,South,180,0.0,0.0,89,0.00,,---,0.00,VWS V14.01,2013-03-30 14:53:00,
2013-03-30 07:58:00,38.7,35.7,30.45,South,180,0.2,0.2,89,0.00,,---,0.00,VWS V14.01,2013-03-30 14:58:00,
2013-03-30 08:03:00,38.9,35.9,30.46,South,180,0.0,0.0,89,0.00,,---,0.00,VWS V14.01,2013-03-30 15:03:00,
2013-03-30 08:08:00,39.1,36.1,30.45,South,180,0.0,0.0,89,0.00,,---,0.00,VWS V14.01,2013-03-30 15:08:00,
2013-03-30 08:13:00,39.4,36.4,30.45,South,180,0.0,0.0,89,0.00,,---,0.00,VWS V14.01,2013-03-30 15:13:00,
2013-03-30 08:18:00,39.8,36.8,30.45,South,180,0.0,0.0,89,0.00,,---,0.00,VWS V14.01,2013-03-30 15:18:00,
2013-03-30 08:23:00,40.1,37.1,30.45,South,180,0.0,0.0,89,0.00,,---,0.00,VWS V14.01,2013-03-30 15:23:00,
2013-03-30 08:28:00,40.5,37.5,30.45,South,180,0.0,0.0,89,0.00,,---,0.00,VWS V14.01,2013-03-30 15:28:00,
2013-03-30 08:33:00,40.9,37.9,30.45,South,180,0.0,0.0,89,0.00,,---,0.00,VWS V14.01,2013-03-30 15:33:00,
2013-03-30 08:38:00,41.6,38.6,30.45,South,180,0.0,0.0,89,0.00,,---,0.00,VWS V14.01,2013-03-30 15:38:00,
2013-03-30 08:43:00,42.1,39.1,30.45,South,180,0.0,0.0,89,0.00,,---,0.00,VWS V14.01,2013-03-30 15:43:00,
2013-03-30 08:48:00,43.0,40.0,30.45,South,180,0.0,0.0,89,0.00,,---,0.00,VWS V14.01,2013-03-30 15:48:00,
2013-03-30 08:53:00,43.6,40.6,30.45,South,180,0.0,0.0,89,0.00,,---,0.00,VWS V14.01,2013-03-30 15:53:00,
2013-03-30 08:58:00,44.6,41.8,30.45,South,180,0.7,0.7,90,0.00,,---,0.00,VWS V14.01,2013-03-30 15:58:00,
2013-03-30 09:03:00,45.5,42.7,30.45,South,180,0.4,0.4,90,0.00,,---,0.00,VWS V14.01,2013-03-30 16:03:00,
2013-03-30 09:08:00,46.3,43.5,30.45,South,180,0.0,0.0,90,0.00,,---,0.00,VWS V14.01,2013-03-30 16:08:00,
2013-03-30 09:13:00,47.2,44.1,30.45,South,180,0.0,0.0,89,0.00,,---,0.00,VWS V14.01,2013-03-30 16:13:00,
2013-03-30 09:18:00,47.9,44.5,30.45,South,180,0.0,0.0,88,0.00,,---,0.00,VWS V14.01,2013-03-30 16:18:00,
2013-03-30 09:23:00,48.8,45.1,30.45,South,180,0.4,0.4,87,0.00,,---,0.00,VWS V14.01,2013-03-30 16:23:00,
2013-03-30 09:28:00,49.5,45.5,30.45,South,180,0.7,0.7,86,0.00,,---,0.00,VWS V14.01,2013-03-30 16:28:00,
2013-03-30 09:33:00,50.2,46.2,30.45,South,180,0.4,1.1,86,0.00,,---,0.00,VWS V14.01,2013-03-30 16:33:00,
2013-03-30 09:38:00,50.8,46.8,30.44,South,180,2.2,2.2,86,0.00,,---,0.00,VWS V14.01,2013-03-30 16:38:00,
2013-03-30 09:43:00,51.3,46.6,30.44,South,180,0.2,0.2,84,0.00,,---,0.00,VWS V14.01,2013-03-30 16:43:00,
2013-03-30 09:48:00,51.8,46.8,30.44,South,180,1.8,1.8,83,0.00,,---,0.00,VWS V14.01,2013-03-30 16:48:00,
2013-03-30 09:53:00,52.4,47.1,30.44,South,180,1.1,1.1,82,0.00,,---,0.00,VWS V14.01,2013-03-30 16:53:00,
2013-03-30 09:58:00,52.9,47.6,30.45,South,180,0.7,0.7,82,0.00,,---,0.00,VWS V14.01,2013-03-30 16:58:00,
2013-03-30 10:03:00,53.6,47.9,30.44,South,180,0.2,0.2,81,0.00,,---,0.00,VWS V14.01,2013-03-30 17:03:00,
2013-03-30 10:08:00,54.2,47.8,30.44,South,180,1.8,1.8,79,0.00,,---,0.00,VWS V14.01,2013-03-30 17:08:00,
2013-03-30 10:13:00,54.7,48.3,30.44,South,180,0.2,1.6,79,0.00,,---,0.00,VWS V14.01,2013-03-30 17:13:00,
2013-03-30 10:18:00,54.7,46.6,30.44,South,180,0.2,0.2,74,0.00,,---,0.00,VWS V14.01,2013-03-30 17:18:00,
2013-03-30 10:23:00,55.1,45.9,30.44,South,180,1.1,1.1,71,0.00,,---,0.00,VWS V14.01,2013-03-30 17:23:00,
2013-03-30 10:28:00,55.1,46.2,30.44,South,180,1.1,1.1,72,0.00,,---,0.00,VWS V14.01,2013-03-30 17:28:00,
2013-03-30 10:33:00,55.3,45.3,30.44,South,180,3.1,3.1,69,0.00,,---,0.00,VWS V14.01,2013-03-30 17:33:00,
2013-03-30 10:38:00,55.4,45.8,30.43,South,180,1.1,1.1,70,0.00,,---,0.00,VWS V14.01,2013-03-30 17:38:00,
2013-03-30 10:43:00,56.0,46.0,30.43,South,180,1.1,1.1,69,0.00,,---,0.00,VWS V14.01,2013-03-30 17:43:00,
2013-03-30 10:48:00,56.2,45.8,30.43,WNW,292,1.6,2.2,68,0.00,,---,0.00,VWS V14.01,2013-03-30 17:48:00,
2013-03-30 10:53:00,56.5,46.5,30.43,NE,45,3.6,3.6,69,0.00,,---,0.00,VWS V14.01,2013-03-30 17:53:00,
2013-03-30 10:58:00,56.7,45.9,30.43,NE,45,3.6,3.6,67,0.00,,---,0.00,VWS V14.01,2013-03-30 17:58:00,
2013-03-30 11:03:00,57.4,46.2,30.43,WSW,248,1.8,1.8,66,0.00,,---,0.00,VWS V14.01,2013-03-30 18:03:00,
2013-03-30 11:08:00,57.8,47.3,30.43,NE,45,4.0,4.0,68,0.00,,---,0.00,VWS V14.01,2013-03-30 18:08:00,
2013-03-30 11:13:00,58.0,46.3,30.43,NE,45,2.2,2.2,65,0.00,,---,0.00,VWS V14.01,2013-03-30 18:13:00,
2013-03-30 11:18:00,58.5,46.4,30.43,NNE,22,4.0,4.0,64,0.00,,---,0.00,VWS V14.01,2013-03-30 18:18:00,
2013-03-30 11:23:00,58.5,43.8,30.44,South,180,1.8,1.8,58,0.00,,---,0.00,VWS V14.01,2013-03-30 18:23:00,
2013-03-30 11:28:00,58.7,44.0,30.44,WNW,292,2.7,2.7,58,0.00,,---,0.00,VWS V14.01,2013-03-30 18:28:00,
2013-03-30 11:33:00,59.2,44.9,30.44,NE,45,3.4,3.4,59,0.00,,---,0.00,VWS V14.01,2013-03-30 18:33:00,
2013-03-30 11:38:00,59.4,45.1,30.44,NE,45,4.3,5.4,59,0.00,,---,0.00,VWS V14.01,2013-03-30 18:38:00,
2013-03-30 11:43:00,60.1,46.6,30.44,ESE,112,2.5,2.5,61,0.00,,---,0.00,VWS V14.01,2013-03-30 18:43:00,
2013-03-30 11:48:00,60.1,45.3,30.43,West,270,2.9,2.9,58,0.00,,---,0.00,VWS V14.01,2013-03-30 18:48:00,
2013-03-30 11:53:00,60.3,45.5,30.43,NE,45,1.3,1.3,58,0.00,,---,0.00,VWS V14.01,2013-03-30 18:53:00,
2013-03-30 11:58:00,60.5,47.0,30.43,NE,45,3.4,3.4,61,0.00,,---,0.00,VWS V14.01,2013-03-30 18:58:00,
2013-03-30 12:03:00,60.8,46.8,30.43,NE,45,4.3,4.3,60,0.00,,---,0.00,VWS V14.01,2013-03-30 19:03:00,
2013-03-30 12:08:00,61.2,46.3,30.43,SSE,158,1.1,1.1,58,0.00,,---,0.00,VWS V14.01,2013-03-30 19:08:00,
2013-03-30 12:13:00,61.4,47.4,30.43,South,180,0.4,1.1,60,0.00,,---,0.00,VWS V14.01,2013-03-30 19:13:00,
2013-03-30 12:18:00,61.7,47.7,30.43,South,180,0.4,0.4,60,0.00,,---,0.00,VWS V14.01,2013-03-30 19:18:00,
2013-03-30 12:23:00,61.6,45.8,30.43,North,0,4.0,4.0,56,0.00,,---,0.00,VWS V14.01,2013-03-30 19:23:00,
2013-03-30 12:28:00,62.3,47.8,30.42,ESE,112,1.1,1.1,59,0.00,,---,0.00,VWS V14.01,2013-03-30 19:28:00,
2013-03-30 12:33:00,62.6,46.2,30.43,ESE,112,1.1,1.1,55,0.00,,---,0.00,VWS V14.01,2013-03-30 19:33:00,
2013-03-30 12:38:00,62.5,46.1,30.43,ENE,68,2.5,2.5,55,0.00,,---,0.00,VWS V14.01,2013-03-30 19:38:00,
2013-03-30 12:43:00,62.5,46.6,30.42,South,180,1.1,2.2,56,0.00,,---,0.00,VWS V14.01,2013-03-30 19:43:00,
2013-03-30 12:48:00,63.2,48.2,30.42,South,180,1.1,1.1,58,0.00,,---,0.00,VWS V14.01,2013-03-30 19:48:00,
2013-03-30 12:53:00,63.9,48.4,30.42,East,90,0.9,0.9,57,0.00,,---,0.00,VWS V14.01,2013-03-30 19:53:00,
2013-03-30 12:58:00,64.1,47.6,30.42,NE,45,1.8,1.8,55,0.00,,---,0.00,VWS V14.01,2013-03-30 19:58:00,
2013-03-30 13:03:00,64.3,47.8,30.41,South,180,1.1,1.1,55,0.00,,---,0.00,VWS V14.01,2013-03-30 20:03:00,
2013-03-30 13:08:00,64.4,46.4,30.41,South,180,3.6,3.6,52,0.00,,---,0.00,VWS V14.01,2013-03-30 20:08:00,
2013-03-30 13:13:00,64.1,46.1,30.42,South,180,2.2,2.2,52,0.00,,---,0.00,VWS V14.01,2013-03-30 20:13:00,
2013-03-30 13:18:00,64.1,47.6,30.41,ENE,68,4.5,4.5,55,0.00,,---,0.00,VWS V14.01,2013-03-30 20:18:00,
2013-03-30 13:23:00,64.8,47.8,30.41,South,180,3.4,3.4,54,0.00,,---,0.00,VWS V14.01,2013-03-30 20:23:00,
2013-03-30 13:28:00,65.2,46.6,30.41,South,180,2.5,2.5,51,0.00,,---,0.00,VWS V14.01,2013-03-30 20:28:00,
2013-03-30 13:33:00,65.3,47.8,30.41,South,180,0.0,1.1,53,0.00,,---,0.00,VWS V14.01,2013-03-30 20:33:00,
2013-03-30 13:38:00,65.5,46.9,30.41,South,180,1.1,1.1,51,0.00,,---,0.00,VWS V14.01,2013-03-30 20:38:00,
2013-03-30 13:43:00,65.7,47.1,30.40,South,180,3.8,3.8,51,0.00,,---,0.00,VWS V14.01,2013-03-30 20:43:00,
2013-03-30 13:48:00,65.9,47.3,30.40,South,180,4.9,4.9,51,0.00,,---,0.00,VWS V14.01,2013-03-30 20:48:00,
2013-03-30 13:53:00,66.2,47.0,30.40,South,180,1.6,1.6,50,0.00,,---,0.00,VWS V14.01,2013-03-30 20:53:00,
2013-03-30 13:58:00,66.4,48.3,30.40,ENE,68,1.1,1.1,52,0.00,,---,0.00,VWS V14.01,2013-03-30 20:58:00,
2013-03-30 14:03:00,67.1,48.9,30.40,South,180,4.0,4.0,52,0.00,,---,0.00,VWS V14.01,2013-03-30 21:03:00,
2013-03-30 14:08:00,67.5,48.2,30.40,North,0,1.8,1.8,50,0.00,,---,0.00,VWS V14.01,2013-03-30 21:08:00,
2013-03-30 14:13:00,67.5,48.2,30.39,SSE,158,1.3,1.3,50,0.00,,---,0.00,VWS V14.01,2013-03-30 21:13:00,
2013-03-30 14:18:00,67.5,48.2,30.39,East,90,1.1,1.1,50,0.00,,---,0.00,VWS V14.01,2013-03-30 21:18:00,
2013-03-30 14:23:00,68.0,49.2,30.38,North,0,0.9,0.9,51,0.00,,---,0.00,VWS V14.01,2013-03-30 21:23:00,
2013-03-30 14:28:00,68.0,47.6,30.38,NW,315,2.5,2.5,48,0.00,,---,0.00,VWS V14.01,2013-03-30 21:28:00,
2013-03-30 14:33:00,67.0,46.7,30.38,SW,225,1.1,1.1,48,0.00,,---,0.00,VWS V14.01,2013-03-30 21:33:00,
2013-03-30 14:38:00,67.0,46.1,30.38,SW,225,1.1,1.1,47,0.00,,---,0.00,VWS V14.01,2013-03-30 21:38:00,
2013-03-30 14:43:00,66.6,46.3,30.38,ESE,112,0.9,0.9,48,0.00,,---,0.00,VWS V14.01,2013-03-30 21:43:00,
2013-03-30 14:48:00,67.0,46.7,30.37,South,180,1.1,1.8,48,0.00,,---,0.00,VWS V14.01,2013-03-30 21:48:00,
2013-03-30 14:53:00,67.3,47.0,30.37,South,180,1.6,1.6,48,0.00,,---,0.00,VWS V14.01,2013-03-30 21:53:00,
2013-03-30 14:58:00,67.7,47.3,30.37,NE,45,3.1,3.1,48,0.00,,---,0.00,VWS V14.01,2013-03-30 21:58:00,
2013-03-30 15:03:00,68.0,46.5,30.37,West,270,0.7,3.1,46,0.00,,---,0.00,VWS V14.01,2013-03-30 22:03:00,
2013-03-30 15:08:00,68.0,47.6,30.37,SSW,202,2.5,2.5,48,0.00,,---,0.00,VWS V14.01,2013-03-30 22:08:00,
2013-03-30 15:13:00,68.8,48.3,30.37,South,180,2.5,2.5,48,0.00,,---,0.00,VWS V14.01,2013-03-30 22:13:00,
2013-03-30 15:18:00,68.8,48.3,30.36,East,90,0.4,0.4,48,0.00,,---,0.00,VWS V14.01,2013-03-30 22:18:00,
2013-03-30 15:23:00,68.8,47.2,30.36,East,90,2.5,2.5,46,0.00,,---,0.00,VWS V14.01,2013-03-30 22:23:00,
2013-03-30 15:28:00,68.4,46.8,30.36,WSW,248,0.9,0.9,46,0.00,,---,0.00,VWS V14.01,2013-03-30 22:28:00,
2013-03-30 15:33:00,68.2,46.7,30.36,WNW,292,2.2,2.2,46,0.00,,---,0.00,VWS V14.01,2013-03-30 22:33:00,
2013-03-30 15:38:00,68.0,46.5,30.36,WNW,292,2.2,2.2,46,0.00,,---,0.00,VWS V14.01,2013-03-30 22:38:00,
2013-03-30 15:43:00,68.2,47.2,30.35,WNW,292,2.2,2.2,47,0.00,,---,0.00,VWS V14.01,2013-03-30 22:43:00,
2013-03-30 15:48:00,68.6,47.0,30.35,West,270,1.1,1.1,46,0.00,,---,0.00,VWS V14.01,2013-03-30 22:48:00,
2013-03-30 15:53:00,68.8,47.2,30.35,North,0,0.9,0.9,46,0.00,,---,0.00,VWS V14.01,2013-03-30 22:53:00,
2013-03-30 15:58:00,68.9,47.9,30.35,South,180,3.8,3.8,47,0.00,,---,0.00,VWS V14.01,2013-03-30 22:58:00,
2013-03-30 16:03:00,68.8,47.2,30.35,South,180,3.8,3.8,46,0.00,,---,0.00,VWS V14.01,2013-03-30 23:03:00,
2013-03-30 16:08:00,68.4,46.2,30.35,South,180,2.0,2.0,45,0.00,,---,0.00,VWS V14.01,2013-03-30 23:08:00,
2013-03-30 16:13:00,68.8,47.2,30.34,South,180,2.0,2.0,46,0.00,,---,0.00,VWS V14.01,2013-03-30 23:13:00,
2013-03-30 16:18:00,69.8,48.7,30.34,WSW,248,4.3,4.3,47,0.00,,---,0.00,VWS V14.01,2013-03-30 23:18:00,
2013-03-30 16:23:00,70.4,48.7,30.34,East,90,1.1,1.1,46,0.00,,---,0.00,VWS V14.01,2013-03-30 23:23:00,
2013-03-30 16:28:00,71.1,47.5,30.34,West,270,1.1,1.1,43,0.00,,---,0.00,VWS V14.01,2013-03-30 23:28:00,
2013-03-30 16:33:00,71.3,48.3,30.34,South,180,0.9,0.9,44,0.00,,---,0.00,VWS V14.01,2013-03-30 23:33:00,
2013-03-30 16:38:00,72.0,47.7,30.34,South,180,0.4,0.9,42,0.00,,---,0.00,VWS V14.01,2013-03-30 23:38:00,
2013-03-30 16:43:00,72.7,48.3,30.33,South,180,1.1,1.6,42,0.00,,---,0.00,VWS V14.01,2013-03-30 23:43:00,
2013-03-30 16:48:00,73.1,48.7,30.33,West,270,1.6,1.6,42,0.00,,---,0.00,VWS V14.01,2013-03-30 23:48:00,
2013-03-30 16:53:00,73.4,50.2,30.33,ENE,68,1.3,1.3,44,0.00,,---,0.00,VWS V14.01,2013-03-30 23:53:00,
2013-03-30 16:58:00,74.3,50.4,30.33,ESE,112,2.7,2.7,43,0.00,,---,0.00,VWS V14.01,2013-03-30 23:58:00,
2013-03-30 17:03:00,75.4,50.7,30.33,NW,315,0.9,0.9,42,0.00,,---,0.00,VWS V14.01,2013-03-31 00:03:00,
2013-03-30 17:08:00,75.1,49.2,30.33,ESE,112,3.4,3.4,40,0.00,,---,0.00,VWS V14.01,2013-03-31 00:08:00,
2013-03-30 17:13:00,73.4,48.3,30.33,South,180,0.2,0.2,41,0.00,,---,0.00,VWS V14.01,2013-03-31 00:13:00,
2013-03-30 17:18:00,72.2,48.5,30.32,South,180,1.1,1.1,43,0.00,,---,0.00,VWS V14.01,2013-03-31 00:18:00,
2013-03-30 17:23:00,70.6,47.7,30.33,ENE,68,1.1,1.1,44,0.00,,---,0.00,VWS V14.01,2013-03-31 00:23:00,
2013-03-30 17:28:00,69.5,47.2,30.32,NW,315,1.6,1.6,45,0.00,,---,0.00,VWS V14.01,2013-03-31 00:28:00,
2013-03-30 17:33:00,68.9,46.7,30.32,South,180,0.2,0.2,45,0.00,,---,0.00,VWS V14.01,2013-03-31 00:33:00,
2013-03-30 17:38:00,68.4,46.8,30.32,South,180,2.7,2.7,46,0.00,,---,0.00,VWS V14.01,2013-03-31 00:38:00,
2013-03-30 17:43:00,68.0,47.0,30.32,South,180,2.2,2.5,47,0.00,,---,0.00,VWS V14.01,2013-03-31 00:43:00,
2013-03-30 17:48:00,67.7,46.2,30.32,South,180,0.0,0.0,46,0.00,,---,0.00,VWS V14.01,2013-03-31 00:48:00,
2013-03-30 17:53:00,67.3,47.0,30.32,South,180,1.1,1.8,48,0.00,,---,0.00,VWS V14.01,2013-03-31 00:53:00,
2013-03-30 17:58:00,66.8,46.5,30.32,NNW,338,0.7,1.1,48,0.00,,---,0.00,VWS V14.01,2013-03-31 00:58:00,
2013-03-30 18:03:00,66.8,46.5,30.32,NNW,338,0.0,0.0,48,0.00,,---,0.00,VWS V14.01,2013-03-31 01:03:00,
2013-03-30 18:08:00,66.6,46.3,30.32,NNW,338,0.0,0.0,48,0.00,,---,0.00,VWS V14.01,2013-03-31 01:08:00,
2013-03-30 18:13:00,66.1,46.9,30.32,NNW,338,0.4,0.4,50,0.00,,---,0.00,VWS V14.01,2013-03-31 01:13:00,
2013-03-30 18:18:00,65.9,46.2,30.32,NNW,338,0.0,0.0,49,0.00,,---,0.00,VWS V14.01,2013-03-31 01:18:00,
2013-03-30 18:23:00,65.9,46.8,30.32,North,0,0.0,0.0,50,0.00,,---,0.00,VWS V14.01,2013-03-31 01:23:00,
2013-03-30 18:28:00,65.5,47.4,30.31,NNW,338,0.2,0.2,52,0.00,,---,0.00,VWS V14.01,2013-03-31 01:28:00,
2013-03-30 18:33:00,65.0,47.0,30.31,WSW,248,0.4,0.4,52,0.00,,---,0.00,VWS V14.01,2013-03-31 01:33:00,
2013-03-30 18:38:00,64.6,47.1,30.31,SSW,202,0.0,0.0,53,0.00,,---,0.00,VWS V14.01,2013-03-31 01:38:00,
2013-03-30 18:43:00,64.3,47.3,30.31,North,0,0.0,0.0,54,0.00,,---,0.00,VWS V14.01,2013-03-31 01:43:00,
2013-03-30 18:48:00,63.7,48.2,30.31,SW,225,1.1,1.1,57,0.00,,---,0.00,VWS V14.01,2013-03-31 01:48:00,
2013-03-30 18:53:00,63.0,48.0,30.31,SW,225,0.4,0.4,58,0.00,,---,0.00,VWS V14.01,2013-03-31 01:53:00,
2013-03-30 18:58:00,62.3,47.8,30.31,SW,225,1.6,1.6,59,0.00,,---,0.00,VWS V14.01,2013-03-31 01:58:00,
2013-03-30 19:03:00,61.7,48.6,30.31,SW,225,0.9,1.1,62,0.00,,---,0.00,VWS V14.01,2013-03-31 02:03:00,
2013-03-30 19:08:00,61.0,47.5,30.31,SW,225,0.0,0.0,61,0.00,,---,0.00,VWS V14.01,2013-03-31 02:08:00,
2013-03-30 19:13:00,60.7,47.6,30.31,SW,225,0.0,0.0,62,0.00,,---,0.00,VWS V14.01,2013-03-31 02:13:00,
2013-03-30 19:18:00,60.5,47.4,30.31,SW,225,0.0,0.0,62,0.00,,---,0.00,VWS V14.01,2013-03-31 02:18:00,
2013-03-30 19:23:00,59.9,46.9,30.31,SW,225,0.7,1.3,62,0.00,,---,0.00,VWS V14.01,2013-03-31 02:23:00,
2013-03-30 19:28:00,59.6,46.6,30.31,SW,225,0.0,0.2,62,0.00,,---,0.00,VWS V14.01,2013-03-31 02:28:00,
2013-03-30 19:33:00,59.0,46.4,30.31,SW,225,0.0,0.0,63,0.00,,---,0.00,VWS V14.01,2013-03-31 02:33:00,
2013-03-30 19:38:00,58.7,46.6,30.31,SW,225,0.0,0.0,64,0.00,,---,0.00,VWS V14.01,2013-03-31 02:38:00,
2013-03-30 19:43:00,58.1,46.0,30.31,SW,225,0.0,0.0,64,0.00,,---,0.00,VWS V14.01,2013-03-31 02:43:00,
2013-03-30 19:48:00,57.4,46.2,30.31,SW,225,0.0,0.0,66,0.00,,---,0.00,VWS V14.01,2013-03-31 02:48:00,
2013-03-30 19:53:00,57.1,45.9,30.31,SW,225,0.0,0.0,66,0.00,,---,0.00,VWS V14.01,2013-03-31 02:53:00,
2013-03-30 19:58:00,56.9,45.7,30.31,SW,225,0.0,0.0,66,0.00,,---,0.00,VWS V14.01,2013-03-31 02:58:00,
2013-03-30 20:03:00,56.5,45.7,30.31,SW,225,0.0,0.0,67,0.00,,---,0.00,VWS V14.01,2013-03-31 03:03:00,
2013-03-30 20:08:00,56.2,45.8,30.31,SW,225,0.0,0.0,68,0.00,,---,0.00,VWS V14.01,2013-03-31 03:08:00,
2013-03-30 20:13:00,55.8,45.4,30.31,SW,225,0.0,0.0,68,0.00,,---,0.00,VWS V14.01,2013-03-31 03:13:00,
2013-03-30 20:18:00,55.1,45.1,30.31,SW,225,0.0,0.0,69,0.00,,---,0.00,VWS V14.01,2013-03-31 03:18:00,
2013-03-30 20:23:00,54.7,44.7,30.31,SW,225,0.0,0.0,69,0.00,,---,0.00,VWS V14.01,2013-03-31 03:23:00,
2013-03-30 20:28:00,54.4,44.8,30.32,SW,225,0.0,0.0,70,0.00,,---,0.00,VWS V14.01,2013-03-31 03:28:00,
2013-03-30 20:33:00,54.2,45.0,30.31,SW,225,0.0,0.0,71,0.00,,---,0.00,VWS V14.01,2013-03-31 03:33:00,
2013-03-30 20:38:00,53.6,44.4,30.32,SW,225,0.0,0.0,71,0.00,,---,0.00,VWS V14.01,2013-03-31 03:38:00,
2013-03-30 20:43:00,53.5,44.7,30.32,SW,225,0.0,0.0,72,0.00,,---,0.00,VWS V14.01,2013-03-31 03:43:00,
2013-03-30 20:48:00,52.9,43.8,30.32,SSW,202,0.4,0.4,71,0.00,,---,0.00,VWS V14.01,2013-03-31 03:48:00,
2013-03-30 20:53:00,52.6,43.8,30.32,South,180,0.4,0.4,72,0.00,,---,0.00,VWS V14.01,2013-03-31 03:53:00,
2013-03-30 20:58:00,52.2,43.5,30.32,South,180,0.9,0.9,72,0.00,,---,0.00,VWS V14.01,2013-03-31 03:58:00,
2013-03-30 21:00:00,52.2,43.5,30.32,South,180,0.7,0.7,72,0.00,,---,0.00,VWS V14.01,2013-03-31 04:00:00,
2013-03-30 21:05:00,51.8,43.4,30.32,South,180,0.0,0.0,73,0.00,,---,0.00,VWS V14.01,2013-03-31 04:05:00,
2013-03-30 21:10:00,51.5,43.1,30.32,South,180,0.0,0.0,73,0.00,,---,0.00,VWS V14.01,2013-03-31 04:10:00,
2013-03-30 21:15:00,51.3,43.3,30.32,South,180,0.7,0.7,74,0.00,,---,0.00,VWS V14.01,2013-03-31 04:15:00,
2013-03-30 21:20:00,51.1,43.1,30.32,South,180,0.4,0.4,74,0.00,,---,0.00,VWS V14.01,2013-03-31 04:20:00,
2013-03-30 21:25:00,50.9,43.3,30.32,South,180,0.0,0.0,75,0.00,,---,0.00,VWS V14.01,2013-03-31 04:25:00,
2013-03-30 21:30:00,50.8,43.2,30.32,South,180,0.2,0.2,75,0.00,,---,0.00,VWS V14.01,2013-03-31 04:30:00,
2013-03-30 21:35:00,50.4,42.8,30.32,South,180,0.0,0.0,75,0.00,,---,0.00,VWS V14.01,2013-03-31 04:35:00,
2013-03-30 21:40:00,50.0,42.4,30.32,South,180,0.2,0.2,75,0.00,,---,0.00,VWS V14.01,2013-03-31 04:40:00,
2013-03-30 21:45:00,49.9,42.7,30.32,South,180,0.4,0.4,76,0.00,,---,0.00,VWS V14.01,2013-03-31 04:45:00,
2013-03-30 21:50:00,49.7,42.5,30.32,South,180,0.0,0.0,76,0.00,,---,0.00,VWS V14.01,2013-03-31 04:50:00,
2013-03-30 21:55:00,49.3,42.4,30.32,South,180,0.0,0.0,77,0.00,,---,0.00,VWS V14.01,2013-03-31 04:55:00,
2013-03-30 22:00:00,49.1,42.2,30.32,South,180,0.0,0.0,77,0.00,,---,0.00,VWS V14.01,2013-03-31 05:00:00,
2013-03-30 22:05:00,49.0,42.1,30.32,South,180,0.9,0.9,77,0.00,,---,0.00,VWS V14.01,2013-03-31 05:05:00,
2013-03-30 22:10:00,48.8,42.3,30.32,South,180,0.0,0.7,78,0.00,,---,0.00,VWS V14.01,2013-03-31 05:10:00,
2013-03-30 22:15:00,48.6,42.1,30.32,South,180,0.0,0.0,78,0.00,,---,0.00,VWS V14.01,2013-03-31 05:15:00,
2013-03-30 22:20:00,48.6,42.1,30.31,South,180,0.0,0.0,78,0.00,,---,0.00,VWS V14.01,2013-03-31 05:20:00,
2013-03-30 22:25:00,48.2,41.7,30.31,South,180,0.0,0.0,78,0.00,,---,0.00,VWS V14.01,2013-03-31 05:25:00,
2013-03-30 22:30:00,48.2,41.7,30.31,South,180,0.0,0.0,78,0.00,,---,0.00,VWS V14.01,2013-03-31 05:30:00,
2013-03-30 22:35:00,47.9,41.4,30.31,South,180,0.0,0.0,78,0.00,,---,0.00,VWS V14.01,2013-03-31 05:35:00,
2013-03-30 22:40:00,47.9,41.7,30.31,South,180,0.0,0.0,79,0.00,,---,0.00,VWS V14.01,2013-03-31 05:40:00,
2013-03-30 22:45:00,47.5,41.3,30.31,South,180,0.0,0.0,79,0.00,,---,0.00,VWS V14.01,2013-03-31 05:45:00,
2013-03-30 22:50:00,47.5,41.3,30.31,South,180,0.0,0.0,79,0.00,,---,0.00,VWS V14.01,2013-03-31 05:50:00,
2013-03-30 22:55:00,47.2,41.4,30.31,South,180,0.0,0.0,80,0.00,,---,0.00,VWS V14.01,2013-03-31 05:55:00,
2013-03-30 23:00:00,47.2,41.4,30.31,South,180,0.7,0.7,80,0.00,,---,0.00,VWS V14.01,2013-03-31 06:00:00,
2013-03-30 23:05:00,47.0,40.8,30.31,South,180,0.2,0.2,79,0.00,,---,0.00,VWS V14.01,2013-03-31 06:05:00,
2013-03-30 23:10:00,46.8,40.6,30.31,South,180,0.0,0.0,79,0.00,,---,0.00,VWS V14.01,2013-03-31 06:10:00,
2013-03-30 23:15:00,46.8,40.6,30.31,South,180,0.0,0.0,79,0.00,,---,0.00,VWS V14.01,2013-03-31 06:15:00,
2013-03-30 23:20:00,46.4,40.2,30.31,South,180,0.0,0.0,79,0.00,,---,0.00,VWS V14.01,2013-03-31 06:20:00,
2013-03-30 23:25:00,46.3,40.2,30.31,South,180,0.0,0.0,79,0.00,,---,0.00,VWS V14.01,2013-03-31 06:25:00,
2013-03-30 23:29:00,46.1,40.3,30.30,South,180,0.0,0.0,80,0.00,,---,0.00,VWS V14.01,2013-03-31 06:29:00,
2013-03-30 23:34:00,45.9,40.1,30.30,South,180,0.0,0.0,80,0.00,,---,0.00,VWS V14.01,2013-03-31 06:34:00,
2013-03-30 23:39:00,45.7,39.9,30.30,South,180,0.0,0.0,80,0.00,,---,0.00,VWS V14.01,2013-03-31 06:39:00,
2013-03-30 23:44:00,45.7,39.9,30.30,South,180,0.0,0.0,80,0.00,,---,0.00,VWS V14.01,2013-03-31 06:44:00,
2013-03-30 23:49:00,45.5,39.7,30.30,South,180,0.0,0.0,80,0.00,,---,0.00,VWS V14.01,2013-03-31 06:49:00,
2013-03-30 23:54:00,45.4,39.9,30.30,South,180,0.0,0.0,81,0.00,,---,0.00,VWS V14.01,2013-03-31 06:54:00,
2013-03-30 23:59:00,45.2,39.7,30.30,South,180,0.0,0.0,81,0.00,,---,0.00,VWS V14.01,2013-03-31 06:59:00,